Terminal Aerodrome Forecast
Issued by NWS Detroit/Pontiac, MI

Home | Current Version | Previous Version | Text Only | Print | Product List | Glossary On
Versions: 1 2 3 4 5 6 7 8 9 10 11 12 13 14 15 16
000
FTUS43 KDTX 300217 AAA
TAFFNT
TAF AMD
KFNT 300217Z 3002/3024 16005KT P6SM SCT050 SCT150
     FM300400 10005KT P6SM BKN035
     FM300900 VRB03KT 6SM BR BKN022
     FM301500 25006KT P6SM BKN040 PROB30 3019/3022 4SM TSRA
      OVC028CB=

USA.gov is the U.S. government's official web portal to all federal, state and local government web resources and services.